Time;durP1;ratioP1;P1;durP2;ratioP2;P2;SDS_P1;SDS_P2;PMS_P1;PMS_P2;Temp;Humidity;BMP_temperature;BMP_pressure;BME280_temperature;BME280_humidity;BME280_pressure;Samples;Min_cycle;Max_cycle;Signal;HPM_P1;HPM_P2
2023/11/25 00:01:45;;;;;;;3.30;3.20;;;;;;;1.92;100.00;100553.69;6091409;23;20102;-70
2023/11/25 00:04:12;;;;;;;2.90;2.80;;;;;;;1.46;100.00;100479.53;6108367;23;20508;-70
2023/11/25 00:06:38;;;;;;;3.40;3.28;;;;;;;1.42;100.00;100464.13;6101789;23;20087;-69
2023/11/25 00:09:06;;;;;;;3.10;3.00;;;;;;;1.82;100.00;100523.72;6104124;23;20017;-70
2023/11/25 00:11:35;;;;;;;3.35;3.20;;;;;;;1.77;100.00;100544.50;6080699;23;20030;-69
2023/11/25 00:14:01;;;;;;;3.00;2.90;;;;;;;1.66;100.00;100512.78;6105865;23;20021;-70
2023/11/25 00:16:27;;;;;;;4.57;4.38;;;;;;;1.65;100.00;100512.84;6104629;23;20029;-70
2023/11/25 00:18:54;;;;;;;2.88;2.78;;;;;;;1.68;100.00;100525.72;6092497;23;20018;-71
2023/11/25 00:21:20;;;;;;;2.72;2.63;;;;;;;1.75;100.00;100528.16;6109662;23;20066;-70
2023/11/25 00:23:47;;;;;;;3.72;3.55;;;;;;;1.72;100.00;100523.03;6080378;23;20025;-71
2023/11/25 00:26:13;;;;;;;3.00;2.90;;;;;;;1.82;100.00;100536.66;6107270;23;20203;-70
2023/11/25 00:28:40;;;;;;;4.03;3.72;;;;;;;1.74;100.00;100530.78;6081196;23;20087;-70
2023/11/25 00:31:06;;;;;;;2.80;2.70;;;;;;;1.78;100.00;100546.22;6108940;23;20041;-70
2023/11/25 00:33:33;;;;;;;3.67;3.35;;;;;;;1.76;100.00;100545.41;6085816;23;20037;-70
2023/11/25 00:35:59;;;;;;;4.13;3.83;;;;;;;0.43;100.00;100328.91;6103040;23;20082;-70
2023/11/25 00:38:26;;;;;;;29.33;5.45;;;;;;;1.80;100.00;100553.94;6081383;23;20030;-69
2023/11/25 00:40:52;;;;;;;3.20;3.10;;;;;;;1.75;100.00;100553.19;6102202;23;20184;-70
2023/11/25 00:43:19;;;;;;;3.03;2.92;;;;;;;1.74;100.00;100554.06;6108204;23;20021;-69
2023/11/25 00:45:46;;;;;;;3.55;3.35;;;;;;;1.68;100.00;100556.75;6105545;23;20025;-69
2023/11/25 00:48:12;;;;;;;3.00;2.90;;;;;;;1.72;100.00;100561.00;6103183;23;20102;-70
2023/11/25 00:50:39;;;;;;;3.10;3.00;;;;;;;1.15;100.00;100474.91;6085740;23;20554;-70
2023/11/25 00:53:05;;;;;;;3.70;3.50;;;;;;;1.48;100.00;100554.50;6106897;23;20081;-70
2023/11/25 00:55:32;;;;;;;3.05;2.95;;;;;;;0.98;100.00;100482.09;6108604;23;20600;-70
2023/11/25 00:57:59;;;;;;;2.92;2.83;;;;;;;1.59;100.00;100581.06;6107877;23;20319;-70
2023/11/25 01:00:26;;;;;;;4.30;4.10;;;;;;;1.32;100.00;100554.78;6099673;23;20057;-69
2023/11/25 01:02:55;;;;;;;3.15;3.05;;;;;;;1.64;100.00;100591.31;6083267;23;20022;-70
2023/11/25 01:05:21;;;;;;;2.85;2.75;;;;;;;1.51;100.00;100576.00;6087453;23;20037;-70
2023/11/25 01:07:48;;;;;;;3.13;3.03;;;;;;;1.55;100.00;100602.69;6108122;23;20420;-70
2023/11/25 01:10:15;;;;;;;2.90;2.80;;;;;;;1.18;100.00;100557.59;6111792;23;20025;-68
2023/11/25 01:12:41;;;;;;;3.33;3.22;;;;;;;1.37;100.00;100601.25;6054621;23;20024;-70
2023/11/25 01:15:08;;;;;;;2.80;2.70;;;;;;;1.39;100.00;100612.41;6111065;23;20059;-71
2023/11/25 01:17:35;;;;;;;2.90;2.80;;;;;;;1.44;100.00;100620.94;6085787;23;20337;-72
2023/11/25 01:20:01;;;;;;;2.80;2.70;;;;;;;1.53;100.00;100628.56;6112052;23;20041;-71
2023/11/25 01:22:27;;;;;;;5.10;4.90;;;;;;;1.59;100.00;100630.19;6105198;23;20652;-72
2023/11/25 01:24:54;;;;;;;3.40;3.20;;;;;;;1.62;100.00;100634.47;6090633;23;20193;-70
2023/11/25 01:27:23;;;;;;;2.88;2.78;;;;;;;1.69;100.00;100636.09;6110074;23;20045;-70
2023/11/25 01:29:50;;;;;;;3.50;3.28;;;;;;;1.79;100.00;100645.41;6106031;23;20147;-70
2023/11/25 01:32:16;;;;;;;3.55;3.35;;;;;;;1.70;100.00;100643.78;6111475;23;20022;-68
2023/11/25 01:34:43;;;;;;;3.05;2.95;;;;;;;1.66;100.00;100660.25;6105506;23;21244;-68
2023/11/25 01:37:11;;;;;;;2.92;2.83;;;;;;;1.68;100.00;100647.28;6087504;23;20034;-68
2023/11/25 01:39:38;;;;;;;3.50;3.30;;;;;;;1.58;100.00;100631.94;6115239;23;20033;-68
2023/11/25 01:42:07;;;;;;;3.53;3.33;;;;;;;1.36;100.00;100621.09;6085568;23;20102;-69
2023/11/25 01:44:33;;;;;;;4.63;4.43;;;;;;;1.11;100.00;100593.88;6108127;23;20409;-69
2023/11/25 01:47:00;;;;;;;5.03;4.65;;;;;;;0.91;100.00;100558.00;6108308;23;20062;-70
2023/11/25 01:49:26;;;;;;;2.72;2.63;;;;;;;1.35;100.00;100650.38;6109229;23;20303;-69
2023/11/25 01:51:54;;;;;;;3.13;3.03;;;;;;;1.38;100.00;100654.66;6110982;23;20635;-69
2023/11/25 01:54:21;;;;;;;3.80;3.65;;;;;;;1.11;100.00;100607.66;6105575;23;20025;-69
2023/11/25 01:56:55;;;;;;;3.22;3.13;;;;;;;1.52;100.00;100664.78;6091886;23;20065;-68
2023/11/25 01:59:23;;;;;;;2.85;2.75;;;;;;;1.34;100.00;100655.56;6102380;23;20029;-69
2023/11/25 02:01:50;;;;;;;3.22;3.13;;;;;;;1.32;100.00;100658.22;6088514;23;20043;-69
2023/11/25 02:04:17;;;;;;;6.78;3.60;;;;;;;1.26;100.00;100647.06;6109761;23;20094;-68
2023/11/25 02:06:43;;;;;;;3.40;3.30;;;;;;;1.18;100.00;100650.66;6087368;23;20456;-69
2023/11/25 02:09:11;;;;;;;2.90;2.80;;;;;;;1.36;100.00;100665.03;6111524;23;20014;-69
2023/11/25 02:12:02;;;;;;;3.08;2.97;;;;;;;1.21;100.00;100654.91;6085594;23;20207;-69
2023/11/25 02:14:28;;;;;;;5.35;5.05;;;;;;;0.95;100.00;100626.84;6103804;23;20204;-69
2023/11/25 02:16:55;;;;;;;3.45;3.35;;;;;;;0.78;100.00;100609.84;6106791;23;20122;-69
2023/11/25 02:19:26;;;;;;;2.90;2.80;;;;;;;1.02;100.00;100656.88;6110071;23;20088;-69
2023/11/25 02:21:53;;;;;;;3.25;3.05;;;;;;;0.95;100.00;100665.59;6086516;23;20735;-69
2023/11/25 02:24:19;;;;;;;3.70;3.58;;;;;;;0.91;100.00;100635.53;6104371;23;20687;-69
2023/11/25 02:26:46;;;;;;;3.05;2.95;;;;;;;0.99;100.00;100649.19;6109909;23;20044;-68
2023/11/25 02:29:13;;;;;;;3.75;3.55;;;;;;;1.17;100.00;100679.09;6107630;23;20092;-69
2023/11/25 02:31:40;;;;;;;3.13;3.03;;;;;;;1.23;100.00;100676.41;6108146;23;20261;-69
2023/11/25 02:34:06;;;;;;;3.17;3.00;;;;;;;1.18;100.00;100676.50;6087817;23;20030;-69
2023/11/25 02:36:33;;;;;;;22.23;5.65;;;;;;;0.70;100.00;100613.38;6104408;23;20096;-70
2023/11/25 02:39:00;;;;;;;3.45;3.25;;;;;;;0.99;100.00;100672.44;6107179;23;20502;-69
2023/11/25 02:41:28;;;;;;;3.88;3.67;;;;;;;1.07;100.00;100696.44;6105902;23;20037;-69
2023/11/25 02:43:55;;;;;;;3.65;3.45;;;;;;;0.75;100.00;100622.78;6109485;23;21233;-69
2023/11/25 02:46:23;;;;;;;4.57;4.38;;;;;;;0.62;100.00;100607.47;6055872;23;20025;-68
2023/11/25 02:48:50;;;;;;;3.03;2.92;;;;;;;0.93;100.00;100673.38;6105011;23;20025;-67
2023/11/25 02:51:17;;;;;;;2.78;2.67;;;;;;;0.88;100.00;100666.53;6087720;23;20061;-68
2023/11/25 02:53:44;;;;;;;3.47;3.30;;;;;;;1.10;100.00;100700.72;6105205;23;20072;-70
2023/11/25 02:56:10;;;;;;;7.95;3.90;;;;;;;1.01;100.00;100688.78;6089393;23;20058;-69
2023/11/25 02:58:37;;;;;;;3.15;2.97;;;;;;;1.02;100.00;100705.97;6103650;23;20455;-69
2023/11/25 03:01:07;;;;;;;3.28;3.17;;;;;;;1.07;100.00;100688.69;6079658;23;20058;-71
2023/11/25 03:03:41;;;;;;;3.28;3.15;;;;;;;0.58;100.00;100614.41;6106700;23;20037;-68
2023/11/25 03:06:09;;;;;;;3.88;3.67;;;;;;;0.55;100.00;100599.81;6102951;23;20040;-70
2023/11/25 03:08:36;;;;;;;3.60;3.50;;;;;;;0.79;100.00;100642.53;6102583;23;20444;-68
2023/11/25 03:11:11;;;;;;;3.25;3.15;;;;;;;1.00;100.00;100679.31;6101383;23;20131;-71
2023/11/25 03:13:40;;;;;;;3.00;2.90;;;;;;;0.63;100.00;100598.88;6077889;23;20614;-70
2023/11/25 03:16:07;;;;;;;3.05;2.95;;;;;;;1.25;100.00;100697.09;6110121;23;20054;-70
2023/11/25 03:18:33;;;;;;;4.75;4.55;;;;;;;1.14;100.00;100682.59;6100900;23;20041;-68
2023/11/25 03:21:00;;;;;;;3.20;3.10;;;;;;;-0.22;100.00;100458.81;6109256;23;20081;-69
2023/11/25 03:23:26;;;;;;;6.57;3.20;;;;;;;1.19;100.00;100691.09;6103593;23;20494;-70
2023/11/25 03:25:52;;;;;;;3.35;3.03;;;;;;;0.74;100.00;100623.69;6077180;23;20010;-68
2023/11/25 03:28:20;;;;;;;4.13;3.95;;;;;;;0.94;100.00;100650.97;6107989;23;20025;-69
2023/11/25 03:30:46;;;;;;;6.47;3.00;;;;;;;1.36;100.00;100692.59;6080925;23;20146;-69
2023/11/25 03:33:13;;;;;;;2.83;2.72;;;;;;;1.35;100.00;100680.56;6111766;23;20487;-69
2023/11/25 03:35:39;;;;;;;2.90;2.80;;;;;;;1.38;100.00;100688.25;6083594;23;20044;-69
2023/11/25 03:38:06;;;;;;;3.10;3.00;;;;;;;1.50;100.00;100703.59;6107400;23;20405;-68
2023/11/25 03:40:32;;;;;;;6.20;5.82;;;;;;;0.39;100.00;100537.19;6074934;23;20325;-68
2023/11/25 03:42:59;;;;;;;3.33;3.22;;;;;;;1.05;100.00;100620.66;6104246;23;20044;-69
2023/11/25 03:45:26;;;;;;;2.65;2.55;;;;;;;1.01;100.00;100607.81;6107562;23;20088;-68
2023/11/25 03:47:54;;;;;;;3.10;3.00;;;;;;;1.50;100.00;100684.66;6099697;23;20383;-68
2023/11/25 03:50:20;;;;;;;4.32;4.05;;;;;;;1.11;100.00;100611.97;6087986;23;20029;-68
2023/11/25 03:52:47;;;;;;;2.75;2.65;;;;;;;1.53;100.00;100680.28;6106213;23;20045;-69
2023/11/25 03:55:13;;;;;;;7.88;3.85;;;;;;;1.58;100.00;100693.13;6108386;23;20085;-69
2023/11/25 03:57:41;;;;;;;5.72;2.90;;;;;;;1.62;100.00;100692.22;6104672;23;20370;-69
2023/11/25 04:00:14;;;;;;;3.17;3.08;;;;;;;1.31;100.00;100624.59;6081272;23;20060;-72
2023/11/25 04:02:46;;;;;;;3.13;3.03;;;;;;;1.91;100.00;100724.56;6107975;23;20044;-68
2023/11/25 04:05:13;;;;;;;2.80;2.70;;;;;;;1.36;100.00;100595.22;6105429;23;20170;-68
2023/11/25 04:07:40;;;;;;;2.78;2.67;;;;;;;1.84;100.00;100669.44;6088190;23;20351;-68
2023/11/25 04:10:15;;;;;;;3.03;2.92;;;;;;;1.87;100.00;100676.31;6101429;23;20034;-69
2023/11/25 04:12:43;;;;;;;3.22;3.13;;;;;;;1.98;100.00;100664.91;6097174;23;20039;-68
2023/11/25 04:15:10;;;;;;;3.10;3.00;;;;;;;1.24;100.00;100563.53;6106834;23;20041;-68
2023/11/25 04:17:38;;;;;;;2.72;2.63;;;;;;;2.01;100.00;100658.81;6105643;23;20205;-68
2023/11/25 04:20:17;;;;;;;4.07;3.83;;;;;;;1.97;100.00;100641.63;6113002;23;20110;-71
2023/11/25 04:22:45;;;;;;;3.10;3.00;;;;;;;1.94;100.00;100637.34;6084721;23;20765;-69
2023/11/25 04:25:14;;;;;;;3.58;3.42;;;;;;;1.91;100.00;100627.06;6111506;23;20086;-69
2023/11/25 04:27:46;;;;;;;2.80;2.70;;;;;;;1.90;100.00;100633.09;6087358;23;20030;-69
2023/11/25 04:30:15;;;;;;;3.03;2.92;;;;;;;2.04;100.00;100637.19;6106091;23;20340;-69
2023/11/25 04:32:43;;;;;;;9.23;3.47;;;;;;;1.92;100.00;100626.16;6085329;23;20055;-71
2023/11/25 04:35:10;;;;;;;3.83;3.53;;;;;;;1.35;100.00;100526.28;6083400;23;20018;-69
2023/11/25 04:37:37;;;;;;;3.67;3.38;;;;;;;1.75;100.00;100605.78;6111506;23;20096;-69
2023/11/25 04:40:07;;;;;;;12.85;4.15;;;;;;;1.65;100.00;100600.78;6111227;23;20148;-69
2023/11/25 04:42:33;;;;;;;5.68;5.35;;;;;;;1.37;100.00;100578.81;6087384;23;20539;-69
2023/11/25 04:45:00;;;;;;;11.43;3.58;;;;;;;1.22;100.00;100560.13;6110415;23;20089;-69
2023/11/25 04:47:26;;;;;;;3.72;3.53;;;;;;;1.27;100.00;100566.91;6089933;23;20087;-69
2023/11/25 04:49:53;;;;;;;3.00;2.90;;;;;;;1.58;100.00;100626.75;6110238;23;20120;-70
2023/11/25 04:52:20;;;;;;;4.50;4.32;;;;;;;1.17;100.00;100562.78;6108023;23;20035;-69
2023/11/25 04:54:48;;;;;;;3.03;2.92;;;;;;;1.57;100.00;100663.00;6080779;23;20038;-69
2023/11/25 04:57:15;;;;;;;3.08;2.92;;;;;;;1.01;100.00;100551.81;6111785;23;20090;-70
2023/11/25 04:59:41;;;;;;;3.67;3.47;;;;;;;1.14;100.00;100586.06;6107096;23;20445;-69
2023/11/25 05:02:08;;;;;;;3.17;2.95;;;;;;;1.63;100.00;100651.69;6112285;23;20085;-69
2023/11/25 05:04:35;;;;;;;4.82;4.47;;;;;;;1.84;100.00;100677.19;6099541;23;20306;-69
2023/11/25 05:07:01;;;;;;;3.58;3.42;;;;;;;1.38;100.00;100600.34;6085733;23;20033;-69
2023/11/25 05:09:28;;;;;;;3.40;3.20;;;;;;;1.74;100.00;100644.59;6110985;23;20028;-69
2023/11/25 05:11:55;;;;;;;5.63;4.25;;;;;;;1.99;100.00;100668.34;6085570;23;20077;-69
2023/11/25 05:14:21;;;;;;;4.55;4.35;;;;;;;1.99;100.00;100656.25;6107689;23;20024;-70
2023/11/25 05:16:48;;;;;;;21.05;3.80;;;;;;;2.02;100.00;100646.72;6081806;23;20028;-71
2023/11/25 05:19:15;;;;;;;2.97;2.88;;;;;;;1.99;100.00;100627.78;6108584;23;20108;-70
2023/11/25 05:21:42;;;;;;;3.75;3.55;;;;;;;2.02;100.00;100631.19;6086595;23;20018;-69
2023/11/25 05:24:08;;;;;;;3.10;3.00;;;;;;;2.06;100.00;100632.84;6105197;23;20025;-71
2023/11/25 05:26:35;;;;;;;14.85;3.92;;;;;;;1.52;100.00;100544.06;6103186;23;20184;-70
2023/11/25 05:29:01;;;;;;;3.35;3.20;;;;;;;2.10;100.00;100627.56;6102855;23;20036;-70
2023/11/25 05:31:27;;;;;;;3.00;2.80;;;;;;;2.08;100.00;100615.53;6078239;23;20111;-70
2023/11/25 05:33:54;;;;;;;5.13;3.33;;;;;;;2.10;100.00;100627.56;6109421;23;20021;-70
2023/11/25 05:36:20;;;;;;;5.05;4.28;;;;;;;2.09;100.00;100609.50;6100952;23;20029;-70
2023/11/25 05:38:49;;;;;;;3.42;3.33;;;;;;;2.25;100.00;100621.28;6079919;23;20370;-70
2023/11/25 05:41:15;;;;;;;3.40;3.20;;;;;;;2.24;100.00;100608.34;6081908;23;20130;-68
2023/11/25 05:43:46;;;;;;;3.35;3.20;;;;;;;2.30;100.00;100608.22;6111837;23;20406;-69
2023/11/25 05:46:21;;;;;;;3.13;3.03;;;;;;;2.37;100.00;100604.63;6109242;23;20209;-69
2023/11/25 05:48:47;;;;;;;3.10;3.00;;;;;;;1.54;100.00;100464.75;6106432;23;20296;-70
2023/11/25 05:51:14;;;;;;;3.40;3.20;;;;;;;2.33;100.00;100585.72;6086401;23;20033;-68
2023/11/25 05:53:40;;;;;;;3.28;3.17;;;;;;;1.03;100.00;100361.44;6105671;23;20017;-69
2023/11/25 05:56:06;;;;;;;3.13;3.03;;;;;;;1.84;100.00;100495.22;6109713;23;20472;-72
2023/11/25 05:58:33;;;;;;;5.05;4.82;;;;;;;2.41;100.00;100577.78;6104246;23;20072;-70
2023/11/25 06:01:00;;;;;;;4.47;3.28;;;;;;;2.52;100.00;100578.41;6087830;23;20063;-70
2023/11/25 06:03:26;;;;;;;3.20;3.10;;;;;;;1.97;100.00;100482.03;6109195;23;20017;-71
2023/11/25 06:05:52;;;;;;;3.10;3.00;;;;;;;2.52;100.00;100560.28;6079286;23;20089;-68
2023/11/25 06:08:20;;;;;;;4.57;4.38;;;;;;;2.57;100.00;100552.44;6108505;23;20486;-70
2023/11/25 06:10:48;;;;;;;3.83;3.58;;;;;;;2.06;100.00;100436.97;6104589;23;20044;-68
2023/11/25 06:13:15;;;;;;;11.73;4.45;;;;;;;2.75;100.00;100539.06;6106743;23;20036;-69
2023/11/25 06:15:42;;;;;;;3.10;3.00;;;;;;;2.71;100.00;100513.25;6082499;23;20077;-68
2023/11/25 06:18:08;;;;;;;5.55;5.25;;;;;;;2.06;100.00;100416.25;6075534;23;20022;-69
2023/11/25 06:20:35;;;;;;;4.20;4.00;;;;;;;2.07;100.00;100407.63;6079107;23;20412;-69
2023/11/25 06:23:01;;;;;;;2.80;2.70;;;;;;;2.75;100.00;100513.16;6103650;23;20010;-67
2023/11/25 06:25:27;;;;;;;3.75;3.55;;;;;;;2.59;100.00;100491.06;6088030;23;20053;-68
2023/11/25 06:27:54;;;;;;;4.75;3.55;;;;;;;2.80;100.00;100507.84;6109677;23;20025;-68
2023/11/25 06:30:22;;;;;;;5.03;4.82;;;;;;;2.87;100.00;100517.19;6102597;23;20049;-68
2023/11/25 06:32:48;;;;;;;3.47;3.38;;;;;;;2.90;100.00;100500.72;6107811;23;20105;-68
2023/11/25 06:35:15;;;;;;;3.15;3.05;;;;;;;2.76;100.00;100482.91;6089665;23;20009;-68
2023/11/25 06:37:42;;;;;;;3.45;3.05;;;;;;;2.58;100.00;100456.53;6106496;23;20054;-69
2023/11/25 06:40:12;;;;;;;3.50;3.20;;;;;;;2.99;100.00;100501.34;6090666;23;20021;-68
2023/11/25 06:42:40;;;;;;;3.45;3.25;;;;;;;2.57;100.00;100433.25;6100918;23;20043;-70
2023/11/25 06:45:07;;;;;;;2.90;2.80;;;;;;;2.99;100.00;100500.50;6110848;23;20021;-68
2023/11/25 06:47:34;;;;;;;3.15;3.05;;;;;;;2.96;100.00;100493.63;6104408;23;20073;-68
2023/11/25 06:50:01;;;;;;;2.90;2.80;;;;;;;2.99;100.00;100500.50;6088228;23;20025;-69
2023/11/25 06:52:27;;;;;;;6.13;5.72;;;;;;;2.54;100.00;100413.44;6103773;23;20120;-68
2023/11/25 06:54:54;;;;;;;3.22;3.13;;;;;;;2.99;100.00;100488.41;6108857;23;20055;-69
2023/11/25 06:57:20;;;;;;;4.47;4.18;;;;;;;2.21;100.00;100352.13;6108687;23;20062;-70
2023/11/25 06:59:47;;;;;;;3.63;3.45;;;;;;;2.86;100.00;100461.06;6100876;23;20459;-68
2023/11/25 07:02:14;;;;;;;3.20;3.10;;;;;;;3.03;100.00;100476.22;6109263;23;20037;-68
2023/11/25 07:04:40;;;;;;;5.22;4.25;;;;;;;2.92;100.00;100458.31;6103954;23;20025;-69
2023/11/25 07:07:07;;;;;;;3.67;3.50;;;;;;;2.92;100.00;100467.84;6106145;23;20099;-69
2023/11/25 07:09:33;;;;;;;3.75;3.45;;;;;;;2.92;100.00;100465.25;6089453;23;20398;-69
2023/11/25 07:12:00;;;;;;;3.10;3.00;;;;;;;2.94;100.00;100486.78;6105602;23;20027;-69
2023/11/25 07:14:26;;;;;;;4.55;4.32;;;;;;;2.90;100.00;100486.00;6084265;23;20032;-69
2023/11/25 07:16:53;;;;;;;3.65;3.55;;;;;;;2.52;100.00;100453.22;6105634;23;20032;-68
2023/11/25 07:19:20;;;;;;;5.05;4.85;;;;;;;2.89;100.00;100492.09;6065070;23;20435;-68
2023/11/25 07:21:47;;;;;;;3.45;3.25;;;;;;;2.84;100.00;100482.72;6106837;23;20321;-68
2023/11/25 07:24:14;;;;;;;3.10;3.00;;;;;;;2.54;100.00;100441.09;6085527;23;20030;-68
2023/11/25 07:26:42;;;;;;;3.35;3.17;;;;;;;2.59;100.00;100463.41;6107794;23;20222;-68
2023/11/25 07:29:10;;;;;;;3.22;3.13;;;;;;;2.60;100.00;100485.00;6101380;23;20025;-68
2023/11/25 07:31:37;;;;;;;3.20;3.10;;;;;;;2.58;100.00;100502.31;6106711;23;20021;-70
2023/11/25 07:34:04;;;;;;;2.90;2.80;;;;;;;2.51;100.00;100506.78;6077821;23;20021;-69
2023/11/25 07:36:32;;;;;;;5.25;4.95;;;;;;;2.48;100.00;100509.44;6081436;23;20036;-69
2023/11/25 07:38:58;;;;;;;7.68;3.33;;;;;;;2.59;100.00;100527.34;6105727;23;20037;-70
2023/11/25 07:41:25;;;;;;;5.35;3.65;;;;;;;2.23;100.00;100470.28;6085989;23;20049;-68
2023/11/25 07:43:52;;;;;;;3.50;3.30;;;;;;;2.65;100.00;100540.16;6107043;23;20021;-67
2023/11/25 07:46:18;;;;;;;3.40;3.28;;;;;;;2.36;100.00;100484.63;6083487;23;20244;-67
2023/11/25 07:48:45;;;;;;;3.42;3.33;;;;;;;2.88;100.00;100550.00;6102553;23;20705;-68
2023/11/25 07:51:12;;;;;;;3.20;3.10;;;;;;;2.93;100.00;100558.53;6082020;23;20018;-68
2023/11/25 07:53:39;;;;;;;2.90;2.80;;;;;;;3.12;100.00;100561.53;6098093;23;20037;-68
2023/11/25 07:56:05;;;;;;;2.90;2.80;;;;;;;3.18;100.00;100543.22;6087724;23;20220;-68
2023/11/25 07:58:32;;;;;;;5.70;5.43;;;;;;;2.01;100.00;100322.34;6096711;23;20085;-68
2023/11/25 08:00:58;;;;;;;3.00;2.90;;;;;;;3.28;100.00;100512.75;6097252;23;20472;-70
2023/11/25 08:03:25;;;;;;;3.10;3.00;;;;;;;3.30;100.00;100502.34;6087406;23;20025;-68
2023/11/25 08:05:52;;;;;;;3.40;3.30;;;;;;;2.90;100.00;100435.91;6097809;23;20277;-69
2023/11/25 08:08:19;;;;;;;3.28;3.17;;;;;;;3.09;100.00;100455.31;6089402;23;20327;-67
2023/11/25 08:10:45;;;;;;;3.25;3.15;;;;;;;3.29;100.00;100480.75;6104763;23;20082;-68
2023/11/25 08:13:14;;;;;;;3.70;3.50;;;;;;;2.68;100.00;100401.91;6078468;23;20073;-68
2023/11/25 08:15:41;;;;;;;3.13;3.03;;;;;;;3.40;100.00;100499.47;6102785;23;20070;-68
2023/11/25 08:18:08;;;;;;;3.83;3.53;;;;;;;3.31;100.00;100478.13;6080943;23;20331;-68
2023/11/25 08:20:34;;;;;;;4.78;4.55;;;;;;;3.47;100.00;100497.56;6101607;23;20279;-68
2023/11/25 08:23:01;;;;;;;2.92;2.83;;;;;;;3.46;100.00;100488.06;6100092;23;20033;-68
2023/11/25 08:25:27;;;;;;;3.88;3.65;;;;;;;3.50;100.00;100492.28;6075425;23;20815;-68
2023/11/25 08:27:54;;;;;;;3.15;3.05;;;;;;;3.47;100.00;100476.81;6105290;23;20047;-67
2023/11/25 08:30:21;;;;;;;5.18;4.88;;;;;;;3.07;100.00;100435.50;6098602;23;20498;-69
2023/11/25 08:32:47;;;;;;;3.22;3.13;;;;;;;3.49;100.00;100485.41;6087479;23;20494;-68
2023/11/25 08:35:13;;;;;;;4.28;3.03;;;;;;;3.58;100.00;100498.13;6103602;23;20025;-67
2023/11/25 08:37:40;;;;;;;3.42;3.20;;;;;;;1.91;100.00;100192.31;6082334;23;20037;-68
2023/11/25 08:40:16;;;;;;;3.50;3.30;;;;;;;3.49;100.00;100461.19;6106393;23;20173;-68
2023/11/25 08:42:44;;;;;;;3.20;3.10;;;;;;;2.95;100.00;100380.50;6078098;23;20022;-68
2023/11/25 08:45:11;;;;;;;3.13;3.03;;;;;;;3.56;100.00;100486.94;6099351;23;20480;-68
2023/11/25 08:47:41;;;;;;;3.15;3.05;;;;;;;3.49;100.00;100480.22;6075920;23;20365;-68
2023/11/25 08:50:10;;;;;;;3.22;3.03;;;;;;;2.25;100.00;100279.50;6107612;23;20028;-69
2023/11/25 08:52:38;;;;;;;4.28;3.88;;;;;;;3.51;100.00;100491.41;6073049;23;20483;-68
2023/11/25 08:55:09;;;;;;;2.90;2.80;;;;;;;3.63;100.00;100510.13;6097097;23;20102;-68
2023/11/25 08:57:36;;;;;;;3.20;3.10;;;;;;;3.82;100.00;100521.72;6076936;23;20025;-69
2023/11/25 09:00:14;;;;;;;3.40;3.30;;;;;;;3.87;100.00;100504.28;6095915;23;20105;-68
2023/11/25 09:02:46;;;;;;;4.05;3.63;;;;;;;2.63;100.00;100275.09;6086639;23;20038;-69
2023/11/25 09:05:14;;;;;;;5.15;4.85;;;;;;;4.10;100.00;100495.00;6084685;23;20091;-69
2023/11/25 09:07:42;;;;;;;3.33;3.22;;;;;;;3.73;100.00;100410.38;6073728;23;20083;-69
2023/11/25 09:10:08;;;;;;;5.30;4.25;;;;;;;4.20;100.00;100447.06;6098986;23;20286;-69
2023/11/25 09:12:37;;;;;;;4.53;4.28;;;;;;;4.25;100.00;100434.81;6069769;23;20022;-70
2023/11/25 09:15:06;;;;;;;3.00;2.90;;;;;;;4.23;100.00;100413.25;6081922;23;20124;-69
2023/11/25 09:17:35;;;;;;;4.25;4.05;;;;;;;4.16;100.00;100401.31;6102508;23;20057;-69
2023/11/25 09:20:04;;;;;;;3.40;3.17;;;;;;;4.20;100.00;100415.91;6106286;23;20045;-70
2023/11/25 09:22:30;;;;;;;5.18;4.97;;;;;;;3.76;100.00;100340.22;6096320;23;20083;-70
2023/11/25 09:24:57;;;;;;;3.95;3.53;;;;;;;4.13;100.00;100412.66;6091798;23;20448;-69
2023/11/25 09:27:23;;;;;;;3.75;3.65;;;;;;;3.98;100.00;100400.97;6082060;23;20041;-70
2023/11/25 09:29:50;;;;;;;3.67;3.58;;;;;;;4.06;100.00;100413.72;6109649;23;20025;-69
2023/11/25 09:32:17;;;;;;;3.15;3.05;;;;;;;4.00;100.00;100377.56;6085599;23;20025;-68
2023/11/25 09:34:43;;;;;;;3.25;3.15;;;;;;;4.27;100.00;100403.56;6108871;23;20350;-69
2023/11/25 09:37:11;;;;;;;3.63;3.50;;;;;;;4.41;100.00;100409.22;6108298;23;20654;-70
2023/11/25 09:39:38;;;;;;;6.32;3.92;;;;;;;4.38;100.00;100404.94;6080453;23;20027;-69
2023/11/25 09:42:04;;;;;;;3.20;3.10;;;;;;;4.59;100.00;100402.56;6101960;23;20021;-69
2023/11/25 09:44:31;;;;;;;5.07;4.88;;;;;;;4.35;100.00;100347.03;6107219;23;20523;-70
2023/11/25 09:46:58;;;;;;;3.10;3.00;;;;;;;4.81;100.00;100376.72;6107883;23;20021;-67
2023/11/25 09:49:25;;;;;;;3.78;3.58;;;;;;;4.34;100.00;100250.06;6105049;23;20032;-69
2023/11/25 09:52:00;;;;;;;3.78;3.58;;;;;;;4.30;100.00;100214.72;6109428;23;20078;-68
2023/11/25 09:54:26;;;;;;;5.40;5.10;;;;;;;5.13;100.00;100313.22;6098300;23;20053;-68
2023/11/25 09:56:53;;;;;;;4.05;3.83;;;;;;;5.10;100.00;100283.84;6109689;23;20436;-68
2023/11/25 09:59:19;;;;;;;3.45;3.35;;;;;;;5.03;100.00;100287.56;6082486;23;20365;-68
2023/11/25 10:01:46;;;;;;;3.63;3.53;;;;;;;4.94;100.00;100271.38;6109207;23;20566;-67
2023/11/25 10:04:14;;;;;;;3.85;3.58;;;;;;;3.63;100.00;100072.47;6091046;23;20404;-67
2023/11/25 10:06:40;;;;;;;6.50;3.40;;;;;;;4.93;100.00;100277.50;6101850;23;20033;-68
2023/11/25 10:09:09;;;;;;;3.80;3.47;;;;;;;4.96;100.00;100298.19;6093903;23;20020;-70
2023/11/25 10:11:37;;;;;;;3.70;3.50;;;;;;;4.20;100.00;100141.44;6105052;23;22373;-68
2023/11/25 10:14:09;;;;;;;3.33;3.22;;;;;;;4.84;100.00;100212.00;6110372;23;20072;-69
2023/11/25 10:16:36;;;;;;;4.90;4.32;;;;;;;5.28;100.00;100240.72;6104517;23;20162;-67
2023/11/25 10:19:03;;;;;;;3.80;3.60;;;;;;;5.13;100.00;100222.16;6108540;23;20029;-67
2023/11/25 10:21:29;;;;;;;3.88;3.67;;;;;;;5.07;100.00;100232.81;6080207;23;20010;-67
2023/11/25 10:24:06;;;;;;;3.65;3.53;;;;;;;5.01;100.00;100225.19;6100955;23;20036;-68
2023/11/25 10:26:36;;;;;;;5.38;5.05;;;;;;;4.78;100.00;100180.09;6087310;23;20246;-68
2023/11/25 10:29:03;;;;;;;3.53;3.42;;;;;;;5.26;100.00;100261.56;6102822;23;20056;-69
2023/11/25 10:31:31;;;;;;;4.95;4.55;;;;;;;5.52;100.00;100260.59;6087371;23;20146;-68
2023/11/25 10:33:59;;;;;;;4.00;3.80;;;;;;;5.71;100.00;100249.44;6110380;23;20021;-69
2023/11/25 10:36:25;;;;;;;5.78;5.38;;;;;;;5.71;100.00;100207.78;6100948;23;20028;-69
2023/11/25 10:38:53;;;;;;;3.80;3.60;;;;;;;6.07;100.00;100221.09;6085103;23;20029;-69
2023/11/25 10:41:20;;;;;;;3.45;3.35;;;;;;;6.27;100.00;100196.81;6078613;23;20079;-69
2023/11/25 10:43:47;;;;;;;3.58;3.47;;;;;;;6.49;100.00;100169.84;6110344;23;20491;-69
2023/11/25 10:46:13;;;;;;;3.50;3.40;;;;;;;6.39;100.00;100102.50;6108836;23;20030;-70
2023/11/25 10:48:40;;;;;;;3.88;3.67;;;;;;;5.26;100.00;99894.75;6095679;23;20138;-69
2023/11/25 10:51:08;;;;;;;3.60;3.50;;;;;;;6.09;100.00;100020.47;6089267;23;20034;-69
2023/11/25 10:53:37;;;;;;;4.63;4.43;;;;;;;5.96;100.00;100017.56;6100821;23;20022;-69
2023/11/25 10:56:04;;;;;;;3.58;3.47;;;;;;;5.06;100.00;99911.22;6109103;23;20028;-69
2023/11/25 10:58:31;;;;;;;9.55;5.38;;;;;;;5.61;100.00;100027.69;6102587;23;20053;-69
2023/11/25 11:00:59;;;;;;;5.07;3.83;;;;;;;5.56;100.00;100059.13;6087807;23;20078;-69
2023/11/25 11:03:58;;;;;;;4.05;3.85;;;;;;;5.64;100.00;100110.03;6096558;23;20404;-69
2023/11/25 11:06:33;;;;;;;5.28;5.07;;;;;;;5.89;100.00;100099.44;6096487;23;20021;-69
2023/11/25 11:09:03;;;;;;;3.53;3.40;;;;;;;5.98;100.00;100086.06;6088329;23;20029;-68
2023/11/25 11:11:45;;;;;;;3.83;3.53;;;;;;;6.00;100.00;100071.22;6105943;23;20414;-67
2023/11/25 11:14:12;;;;;;;5.90;3.60;;;;;;;6.09;100.00;100094.25;6106933;23;20261;-70
2023/11/25 11:16:39;;;;;;;3.55;3.45;;;;;;;6.12;100.00;100088.06;6100811;23;20025;-69
2023/11/25 11:19:09;;;;;;;3.40;3.30;;;;;;;6.21;100.00;100073.78;6089393;23;20024;-70
2023/11/25 11:21:43;;;;;;;3.60;3.50;;;;;;;6.25;100.00;100049.28;6105566;23;20193;-68
2023/11/25 11:24:14;;;;;;;5.82;4.32;;;;;;;6.29;100.00;100043.03;6084074;23;20033;-70
2023/11/25 11:27:06;;;;;;;3.80;3.60;;;;;;;6.26;100.00;100011.91;6104302;23;20483;-67